createdAt,value
2018-12-26T00:00:51.066Z,0.10
2018-12-26T00:03:17.294Z,0.20
2018-12-26T00:05:43.561Z,0.20
2018-12-26T00:08:09.811Z,0.10
2018-12-26T00:10:36.014Z,0.10
2018-12-26T00:13:02.254Z,0.20
2018-12-26T00:15:28.459Z,0.20
2018-12-26T00:17:54.650Z,0.20
2018-12-26T00:20:20.871Z,0.10
2018-12-26T00:22:47.070Z,0.20
2018-12-26T00:25:13.301Z,0.10
2018-12-26T00:27:39.609Z,0.20
2018-12-26T00:30:05.927Z,0.20
2018-12-26T00:32:32.135Z,0.10
2018-12-26T00:34:58.387Z,0.10
2018-12-26T00:37:24.701Z,0.10
2018-12-26T00:39:51.027Z,0.10
2018-12-26T00:42:17.290Z,0.10
2018-12-26T00:44:43.527Z,0.10
2018-12-26T00:47:35.607Z,0.00
2018-12-26T00:50:21.699Z,0.00
2018-12-26T00:53:07.771Z,0.10
2018-12-26T00:55:53.973Z,0.20
2018-12-26T00:58:40.179Z,0.10
2018-12-26T01:01:26.512Z,0.10
2018-12-26T01:04:12.579Z,0.10
2018-12-26T01:06:58.662Z,0.10
2018-12-26T01:09:44.731Z,0.20
2018-12-26T01:12:30.819Z,0.00
2018-12-26T01:15:16.891Z,0.00
2018-12-26T01:18:02.979Z,-0.10
2018-12-26T01:20:49.062Z,-0.20
2018-12-26T01:23:35.136Z,0.00
2018-12-26T01:26:21.214Z,0.00
2018-12-26T01:29:07.278Z,-0.10
2018-12-26T01:31:53.362Z,-0.10
2018-12-26T01:34:32.934Z,-0.10
2018-12-26T01:37:12.975Z,-0.10
2018-12-26T01:39:52.984Z,-0.10
2018-12-26T01:42:32.866Z,-0.10
2018-12-26T01:45:12.828Z,-0.10
2018-12-26T01:47:52.983Z,-0.10
2018-12-26T01:50:32.899Z,-0.10
2018-12-26T01:53:12.036Z,-0.10
2018-12-26T01:55:51.979Z,-0.10
2018-12-26T01:58:31.096Z,-0.20
2018-12-26T02:01:10.156Z,-0.10
2018-12-26T02:03:49.303Z,-0.10
2018-12-26T02:06:28.325Z,-0.20
2018-12-26T02:08:54.674Z,-0.20
2018-12-26T02:11:40.739Z,-0.20
2018-12-26T02:14:26.823Z,-0.20
2018-12-26T02:17:12.886Z,-0.20
2018-12-26T02:19:58.984Z,-0.20
2018-12-26T02:22:45.053Z,-0.20
2018-12-26T02:25:31.139Z,-0.30
2018-12-26T02:28:17.499Z,-0.30
2018-12-26T02:30:56.675Z,-0.30
2018-12-26T02:33:36.739Z,-0.30
2018-12-26T02:36:16.711Z,-0.30
2018-12-26T02:38:56.809Z,-0.20
2018-12-26T02:41:35.873Z,-0.30
2018-12-26T02:44:15.940Z,-0.30
2018-12-26T02:46:55.899Z,-0.30
2018-12-26T02:49:35.225Z,-0.40
2018-12-26T02:52:15.287Z,-0.40
2018-12-26T02:54:55.147Z,-0.30
2018-12-26T02:57:35.000Z,-0.40
2018-12-26T03:00:15.043Z,-0.40
2018-12-26T03:02:54.288Z,-0.40
2018-12-26T03:05:34.138Z,-0.50
2018-12-26T03:08:13.189Z,-0.50
2018-12-26T03:10:53.275Z,-0.50
2018-12-26T03:13:33.324Z,-0.50
2018-12-26T03:16:12.403Z,-0.30
2018-12-26T03:18:51.525Z,-0.40
2018-12-26T03:21:28.814Z,-0.40
2018-12-26T03:24:08.498Z,-0.40
2018-12-26T03:26:55.824Z,-0.50
2018-12-26T03:29:29.030Z,-0.50
2018-12-26T03:32:08.825Z,-0.50
2018-12-26T03:34:48.871Z,-0.40
2018-12-26T03:37:28.769Z,-0.50
2018-12-26T03:40:08.083Z,-0.50
2018-12-26T03:42:48.059Z,-0.50
2018-12-26T03:45:27.477Z,-0.40
2018-12-26T03:48:07.401Z,-0.50
2018-12-26T03:50:44.703Z,-0.60
2018-12-26T03:53:30.766Z,-0.50
2018-12-26T03:56:16.957Z,-0.50
2018-12-26T03:59:03.029Z,-0.50
2018-12-26T04:01:49.116Z,-0.50
2018-12-26T04:04:35.179Z,-0.40
2018-12-26T04:07:21.371Z,-0.40
2018-12-26T04:10:07.436Z,-0.50
2018-12-26T04:12:53.627Z,-0.40
2018-12-26T04:15:39.884Z,-0.30
2018-12-26T04:18:25.978Z,-0.40
2018-12-26T04:21:12.039Z,-0.40
2018-12-26T04:23:51.583Z,-0.50
2018-12-26T04:26:31.437Z,-0.50
2018-12-26T04:29:11.472Z,-0.50
2018-12-26T04:31:51.152Z,-0.50
2018-12-26T04:34:30.989Z,-0.50
2018-12-26T04:37:08.467Z,-0.50
2018-12-26T04:39:54.540Z,-0.60
2018-12-26T04:42:40.622Z,-0.50
2018-12-26T04:45:26.695Z,-0.50
2018-12-26T04:48:12.787Z,-0.50
2018-12-26T04:50:58.857Z,-0.60
2018-12-26T04:53:45.034Z,-0.50
2018-12-26T04:56:31.107Z,-0.50
2018-12-26T04:59:17.192Z,-0.50
2018-12-26T05:02:03.254Z,-0.50
2018-12-26T05:04:49.348Z,-0.60
2018-12-26T05:07:35.435Z,-0.60
2018-12-26T05:10:01.761Z,-0.50
2018-12-26T05:12:47.970Z,-0.50
2018-12-26T05:15:34.040Z,-0.50
2018-12-26T05:18:13.295Z,-0.50
2018-12-26T05:20:52.468Z,-0.60
2018-12-26T05:23:31.616Z,-0.60
2018-12-26T05:26:11.557Z,-0.60
2018-12-26T05:28:48.731Z,-0.60
2018-12-26T05:31:34.794Z,-0.60
2018-12-26T05:34:20.887Z,-0.60
2018-12-26T05:37:06.955Z,-0.60
2018-12-26T05:39:53.039Z,-0.60
2018-12-26T05:42:39.115Z,-0.50
2018-12-26T05:45:25.203Z,-0.70
2018-12-26T05:48:11.267Z,-0.70
2018-12-26T05:50:57.359Z,-0.70
2018-12-26T05:53:43.503Z,-0.70
2018-12-26T05:56:29.590Z,-0.50
2018-12-26T05:59:15.662Z,-0.60
2018-12-26T06:02:01.755Z,-0.60
2018-12-26T06:04:47.844Z,-0.70
2018-12-26T06:07:33.911Z,-0.60
2018-12-26T06:10:20.005Z,-0.60
2018-12-26T06:13:06.075Z,-0.60
2018-12-26T06:15:52.183Z,-0.70
2018-12-26T06:18:38.247Z,-0.60
2018-12-26T06:21:04.639Z,-0.60
2018-12-26T06:23:50.702Z,-0.70
2018-12-26T06:26:36.795Z,-0.60
2018-12-26T06:29:22.866Z,-0.60
2018-12-26T06:32:09.067Z,-0.50
2018-12-26T06:34:55.132Z,-0.60
2018-12-26T06:37:41.214Z,-0.60
2018-12-26T06:40:27.282Z,-0.40
2018-12-26T06:43:13.371Z,-0.50
2018-12-26T06:45:59.434Z,-0.50
2018-12-26T06:48:25.694Z,-0.50
2018-12-26T06:50:51.975Z,-0.50
2018-12-26T06:53:18.192Z,-0.60
2018-12-26T06:55:44.396Z,-0.50
2018-12-26T06:58:10.726Z,-0.60
2018-12-26T07:00:36.926Z,-0.60
2018-12-26T07:03:03.142Z,-0.60
2018-12-26T07:05:29.347Z,-0.60
2018-12-26T07:07:55.563Z,-0.70
2018-12-26T07:10:21.758Z,-0.60
2018-12-26T07:13:00.363Z,-0.60
2018-12-26T07:15:26.566Z,-0.70
2018-12-26T07:17:52.799Z,-0.60
2018-12-26T07:20:19.011Z,-0.60
2018-12-26T07:22:45.246Z,-0.60
2018-12-26T07:25:14.005Z,-0.50
2018-12-26T07:27:40.319Z,-0.50
2018-12-26T07:30:06.562Z,-0.50
2018-12-26T07:32:32.766Z,-0.40
2018-12-26T07:34:58.995Z,-0.60
2018-12-26T07:37:25.186Z,-0.60
2018-12-26T07:39:51.406Z,-0.50
2018-12-26T07:42:17.609Z,-0.50
2018-12-26T07:44:43.822Z,-0.50
2018-12-26T07:47:10.028Z,-0.50
2018-12-26T07:49:36.247Z,-0.50
2018-12-26T07:52:02.451Z,-0.50
2018-12-26T07:54:28.651Z,-0.40
2018-12-26T07:56:54.873Z,-0.40
2018-12-26T07:59:21.177Z,-0.30
2018-12-26T08:01:47.403Z,-0.30
2018-12-26T08:04:13.603Z,-0.30
2018-12-26T08:06:39.831Z,-0.20
2018-12-26T08:09:06.026Z,-0.20
2018-12-26T08:11:32.250Z,-0.10
2018-12-26T08:13:58.822Z,-0.10
2018-12-26T08:16:25.047Z,0.00
2018-12-26T08:18:51.255Z,0.00
2018-12-26T08:21:17.475Z,-0.10
2018-12-26T08:23:43.695Z,0.00
2018-12-26T08:26:09.937Z,0.00
2018-12-26T08:28:36.146Z,0.10
2018-12-26T08:31:02.489Z,0.10
2018-12-26T08:33:28.698Z,0.20
2018-12-26T08:35:54.914Z,0.20
2018-12-26T08:38:21.114Z,0.30
2018-12-26T08:40:47.335Z,0.40
2018-12-26T08:43:13.542Z,0.40
2018-12-26T08:45:39.762Z,0.40
2018-12-26T08:48:05.982Z,0.40
2018-12-26T08:50:32.375Z,0.50
2018-12-26T08:52:58.609Z,0.50
2018-12-26T08:55:24.858Z,0.60
2018-12-26T08:57:51.076Z,0.70
2018-12-26T09:00:17.383Z,0.80
2018-12-26T09:02:43.635Z,0.80
2018-12-26T09:05:09.838Z,0.70
2018-12-26T09:07:36.063Z,0.80
2018-12-26T09:10:04.803Z,0.90
2018-12-26T09:12:31.011Z,0.90
2018-12-26T09:14:57.234Z,1.00
2018-12-26T09:17:23.458Z,1.00
2018-12-26T09:19:49.654Z,1.20
2018-12-26T09:22:15.854Z,1.30
2018-12-26T09:24:42.070Z,1.30
2018-12-26T09:27:08.779Z,1.30
2018-12-26T09:29:34.999Z,1.20
2018-12-26T09:32:01.205Z,1.30
2018-12-26T09:34:27.426Z,1.40
2018-12-26T09:36:53.726Z,1.40
2018-12-26T09:39:19.958Z,1.40
2018-12-26T09:41:46.167Z,1.50
2018-12-26T09:44:12.475Z,1.40
2018-12-26T09:46:38.690Z,1.60
2018-12-26T09:49:04.906Z,1.60
2018-12-26T09:51:31.107Z,1.70
2018-12-26T09:53:57.332Z,1.80
2018-12-26T09:56:23.531Z,1.80
2018-12-26T09:58:52.646Z,1.90
2018-12-26T10:01:17.845Z,1.80
2018-12-26T10:03:44.058Z,1.90
2018-12-26T10:06:10.261Z,1.90
2018-12-26T10:08:36.474Z,1.90
2018-12-26T10:11:02.699Z,1.90
2018-12-26T10:13:28.910Z,1.90
2018-12-26T10:15:55.114Z,2.00
2018-12-26T10:18:21.350Z,2.10
2018-12-26T10:20:47.815Z,2.10
2018-12-26T10:23:14.063Z,2.10
2018-12-26T10:25:40.283Z,2.20
2018-12-26T10:28:06.511Z,2.10
2018-12-26T10:30:32.812Z,2.20
2018-12-26T10:32:59.026Z,2.30
2018-12-26T10:35:25.252Z,2.30
2018-12-26T10:37:51.461Z,2.30
2018-12-26T10:40:17.670Z,2.40
2018-12-26T10:42:45.921Z,2.50
2018-12-26T10:45:12.169Z,2.50
2018-12-26T10:47:38.371Z,2.60
2018-12-26T10:50:07.503Z,2.60
2018-12-26T10:52:33.857Z,2.70
2018-12-26T10:55:00.168Z,2.70
2018-12-26T10:57:26.706Z,2.80
2018-12-26T10:59:52.981Z,2.90
2018-12-26T11:02:19.178Z,3.00
2018-12-26T11:04:45.394Z,3.10
2018-12-26T11:07:11.621Z,3.10
2018-12-26T11:09:37.838Z,3.30
2018-12-26T11:12:04.042Z,3.40
2018-12-26T11:14:30.258Z,3.40
2018-12-26T11:16:57.844Z,3.40
2018-12-26T11:19:24.054Z,3.50
2018-12-26T11:21:50.259Z,3.60
2018-12-26T11:24:16.640Z,3.70
2018-12-26T11:26:43.151Z,3.70
2018-12-26T11:29:09.355Z,3.70
2018-12-26T11:31:35.570Z,3.70
2018-12-26T11:34:01.770Z,3.80
2018-12-26T11:36:28.326Z,3.80
2018-12-26T11:38:54.971Z,3.90
2018-12-26T11:41:21.303Z,4.00
2018-12-26T11:43:47.504Z,4.10
2018-12-26T11:46:13.726Z,4.20
2018-12-26T11:48:39.935Z,4.30
2018-12-26T11:51:06.164Z,4.40
2018-12-26T11:53:32.367Z,4.50
2018-12-26T11:55:58.579Z,4.50
2018-12-26T11:58:24.783Z,4.80
2018-12-26T12:00:51.001Z,5.00
2018-12-26T12:03:17.194Z,5.00
2018-12-26T12:05:43.534Z,5.10
2018-12-26T12:08:09.734Z,5.20
2018-12-26T12:10:36.147Z,5.10
2018-12-26T12:13:02.362Z,5.10
2018-12-26T12:15:28.558Z,5.10
2018-12-26T12:17:54.783Z,5.20
2018-12-26T12:20:20.982Z,5.10
2018-12-26T12:22:47.302Z,5.20
2018-12-26T12:25:13.506Z,5.20
2018-12-26T12:27:39.727Z,5.20
2018-12-26T12:30:06.917Z,5.30
2018-12-26T12:32:33.279Z,5.40
2018-12-26T12:34:59.787Z,5.40
2018-12-26T12:37:26.158Z,5.40
2018-12-26T12:39:52.462Z,5.50
2018-12-26T12:42:20.711Z,5.50
2018-12-26T12:44:47.015Z,5.60
2018-12-26T12:47:13.343Z,5.60
2018-12-26T12:49:39.540Z,5.60
2018-12-26T12:52:06.098Z,5.70
2018-12-26T12:54:32.594Z,5.80
2018-12-26T12:56:59.054Z,5.80
2018-12-26T12:59:25.314Z,5.80
2018-12-26T13:01:51.568Z,5.80
2018-12-26T13:04:38.114Z,5.90
2018-12-26T13:07:17.834Z,6.00
2018-12-26T13:09:57.823Z,6.00
2018-12-26T13:12:37.683Z,5.90
2018-12-26T13:15:17.779Z,6.00
2018-12-26T13:17:57.705Z,6.10
2018-12-26T13:20:37.675Z,6.00
2018-12-26T13:23:17.707Z,6.20
2018-12-26T13:25:58.011Z,6.30
2018-12-26T13:28:37.934Z,6.30
2018-12-26T13:31:17.755Z,6.10
2018-12-26T13:33:57.169Z,6.10
2018-12-26T13:36:36.907Z,6.20
2018-12-26T13:39:16.067Z,6.40
2018-12-26T13:41:55.239Z,6.40
2018-12-26T13:44:34.509Z,6.50
2018-12-26T13:47:14.632Z,6.60
2018-12-26T13:49:54.442Z,6.60
2018-12-26T13:52:34.620Z,6.80
2018-12-26T13:55:14.712Z,7.10
2018-12-26T13:57:51.924Z,7.10
2018-12-26T14:00:39.990Z,7.10
2018-12-26T14:03:19.989Z,7.10
2018-12-26T14:06:00.008Z,7.10
2018-12-26T14:08:40.139Z,7.20
2018-12-26T14:14:18.116Z,7.30
2018-12-26T14:16:58.175Z,7.10
2018-12-26T14:19:37.319Z,6.90
2018-12-26T14:22:17.250Z,6.90
2018-12-26T14:24:56.775Z,6.90
2018-12-26T14:27:36.499Z,7.00
2018-12-26T14:30:16.422Z,6.90
2018-12-26T14:32:56.413Z,6.70
2018-12-26T14:35:35.513Z,6.70
2018-12-26T14:38:14.957Z,6.60
2018-12-26T14:40:54.878Z,6.40
2018-12-26T14:43:34.928Z,6.50
2018-12-26T14:46:14.764Z,6.40
2018-12-26T14:48:53.859Z,6.50
2018-12-26T14:51:33.009Z,6.30
2018-12-26T14:54:12.096Z,6.20
2018-12-26T14:56:51.953Z,5.90
2018-12-26T14:59:33.802Z,5.80
2018-12-26T15:02:13.735Z,5.70
2018-12-26T15:04:53.793Z,5.60
2018-12-26T15:07:33.858Z,5.60
2018-12-26T15:10:11.088Z,5.60
2018-12-26T15:12:57.964Z,5.40
2018-12-26T15:15:44.081Z,5.20
2018-12-26T15:18:30.243Z,5.10
2018-12-26T15:21:16.409Z,5.00
2018-12-26T15:24:02.490Z,4.90
2018-12-26T15:26:48.574Z,4.80
2018-12-26T15:29:34.780Z,4.70
2018-12-26T15:32:20.867Z,4.60
2018-12-26T15:35:07.289Z,4.40
2018-12-26T15:37:53.379Z,4.30
2018-12-26T15:40:39.467Z,4.30
2018-12-26T15:43:25.627Z,4.20
2018-12-26T15:46:11.749Z,4.10
2018-12-26T15:48:57.925Z,4.10
2018-12-26T15:51:44.075Z,4.00
2018-12-26T15:54:24.136Z,4.00
2018-12-26T15:57:04.499Z,3.90
2018-12-26T15:59:44.437Z,3.80
2018-12-26T16:02:24.552Z,3.80
2018-12-26T16:05:03.836Z,3.80
2018-12-26T16:07:43.974Z,3.70
2018-12-26T16:10:24.024Z,3.70
2018-12-26T16:13:03.221Z,3.60
2018-12-26T16:15:29.654Z,3.50
2018-12-26T16:18:15.743Z,3.40
2018-12-26T16:21:01.897Z,3.30
2018-12-26T16:23:48.120Z,3.40
2018-12-26T16:26:34.266Z,3.40
2018-12-26T16:29:20.385Z,3.50
2018-12-26T16:32:06.651Z,3.50
2018-12-26T16:34:53.112Z,3.40
2018-12-26T16:37:39.178Z,3.30
2018-12-26T16:40:25.291Z,3.30
2018-12-26T16:43:11.499Z,3.20
2018-12-26T16:45:57.611Z,3.20
2018-12-26T16:48:43.696Z,3.10
2018-12-26T16:51:29.878Z,3.10
2018-12-26T16:54:09.077Z,3.10
2018-12-26T16:56:48.331Z,3.20
2018-12-26T16:59:27.407Z,3.10
2018-12-26T17:02:06.614Z,3.00
2018-12-26T17:04:46.018Z,2.90
2018-12-26T17:07:25.923Z,2.80
2018-12-26T17:10:05.122Z,2.90
2018-12-26T17:12:45.268Z,2.80
2018-12-26T17:15:24.460Z,2.90
2018-12-26T17:18:04.419Z,2.80
2018-12-26T17:20:44.340Z,2.70
2018-12-26T17:23:24.438Z,2.70
2018-12-26T17:26:04.340Z,2.80
2018-12-26T17:28:44.199Z,2.80
2018-12-26T17:31:24.119Z,2.80
2018-12-26T17:34:04.143Z,2.70
2018-12-26T17:36:43.363Z,2.70
2018-12-26T17:39:22.419Z,2.70
2018-12-26T17:42:01.569Z,2.70
2018-12-26T17:44:40.712Z,2.70
2018-12-26T17:47:20.712Z,2.60
2018-12-26T17:50:00.688Z,2.60
2018-12-26T17:52:40.637Z,2.60
2018-12-26T17:55:20.503Z,2.50
2018-12-26T17:58:00.440Z,2.40
2018-12-26T18:00:39.488Z,2.50
2018-12-26T18:03:19.672Z,2.60
2018-12-26T18:05:59.611Z,2.50
2018-12-26T18:08:38.840Z,2.60
2018-12-26T18:11:18.625Z,2.50
2018-12-26T18:13:57.862Z,2.50
2018-12-26T18:16:37.712Z,2.40
2018-12-26T18:19:16.965Z,2.50
2018-12-26T18:21:56.103Z,2.50
2018-12-26T18:24:33.308Z,2.40
2018-12-26T18:27:19.395Z,2.40
2018-12-26T18:30:05.868Z,2.30
2018-12-26T18:32:52.067Z,2.30
2018-12-26T18:35:38.139Z,2.30
2018-12-26T18:38:24.226Z,2.30
2018-12-26T18:41:30.184Z,2.30
2018-12-26T18:44:16.258Z,2.20
2018-12-26T18:47:02.334Z,2.20
2018-12-26T18:49:42.092Z,2.20
2018-12-26T18:52:22.152Z,2.00
2018-12-26T18:55:02.215Z,2.10
2018-12-26T18:57:42.181Z,2.00
2018-12-26T19:00:22.083Z,2.00
2018-12-26T19:02:59.375Z,1.90
2018-12-26T19:05:45.468Z,2.00
2018-12-26T19:08:31.550Z,2.00
2018-12-26T19:11:37.502Z,2.00
2018-12-26T19:14:23.604Z,2.00
2018-12-26T19:17:09.668Z,2.00
2018-12-26T19:20:15.643Z,1.90
2018-12-26T19:23:01.715Z,1.90
2018-12-26T19:25:47.803Z,1.90
2018-12-26T19:28:33.896Z,2.00
2018-12-26T19:31:19.963Z,2.00
2018-12-26T19:34:06.055Z,1.90
2018-12-26T19:36:52.125Z,1.90
2018-12-26T19:39:38.211Z,1.90
2018-12-26T19:42:24.282Z,1.80
2018-12-26T19:45:10.362Z,1.70
2018-12-26T19:47:56.430Z,1.70
2018-12-26T19:50:35.971Z,1.70
2018-12-26T19:53:15.997Z,1.70
2018-12-26T19:55:55.282Z,1.70
2018-12-26T19:58:32.488Z,1.70
2018-12-26T20:01:18.695Z,1.80
2018-12-26T20:04:04.803Z,1.70
2018-12-26T20:06:50.891Z,1.70
2018-12-26T20:09:36.960Z,1.70
2018-12-26T20:12:23.053Z,1.70
2018-12-26T20:15:09.114Z,1.60
2018-12-26T20:17:55.205Z,1.70
2018-12-26T20:21:01.276Z,1.60
2018-12-26T20:23:47.347Z,1.60
2018-12-26T20:26:33.438Z,1.70
2018-12-26T20:29:19.510Z,1.60
2018-12-26T20:32:05.608Z,1.70
2018-12-26T20:35:11.559Z,1.60
2018-12-26T20:37:57.816Z,1.60
2018-12-26T20:40:43.886Z,1.50
2018-12-26T20:43:29.970Z,1.60
2018-12-26T20:46:09.091Z,1.60
2018-12-26T20:48:49.247Z,1.70
2018-12-26T20:51:29.259Z,1.80
2018-12-26T20:54:08.451Z,1.70
2018-12-26T20:56:48.364Z,1.80
2018-12-26T20:59:28.308Z,1.70
2018-12-26T21:02:07.423Z,1.70
2018-12-26T21:04:47.507Z,1.70
2018-12-26T21:07:26.655Z,1.80
2018-12-26T21:10:06.737Z,1.80
2018-12-26T21:12:46.689Z,1.70
2018-12-26T21:15:26.847Z,1.80
2018-12-26T21:18:06.009Z,1.80
2018-12-26T21:20:32.241Z,1.80
2018-12-26T21:22:58.471Z,1.70
2018-12-26T21:25:24.787Z,1.60
2018-12-26T21:27:50.997Z,1.60
2018-12-26T21:30:17.409Z,1.60
2018-12-26T21:32:44.054Z,1.60
2018-12-26T21:35:10.286Z,1.60
2018-12-26T21:37:36.935Z,1.70
2018-12-26T21:40:05.553Z,1.60
2018-12-26T21:42:31.766Z,1.70
2018-12-26T21:44:57.978Z,1.70
2018-12-26T21:47:24.179Z,1.60
2018-12-26T21:49:50.405Z,1.70
2018-12-26T21:52:16.601Z,1.70
2018-12-26T21:54:42.944Z,1.70
2018-12-26T21:57:14.070Z,1.80
2018-12-26T21:59:40.307Z,1.70
2018-12-26T22:02:06.782Z,1.70
2018-12-26T22:04:33.127Z,1.70
2018-12-26T22:06:59.328Z,1.80
2018-12-26T22:09:25.555Z,1.80
2018-12-26T22:11:51.761Z,1.80
2018-12-26T22:14:17.982Z,1.70
2018-12-26T22:16:44.358Z,1.80
2018-12-26T22:19:10.599Z,1.70
2018-12-26T22:21:36.915Z,1.70
2018-12-26T22:24:03.117Z,1.80
2018-12-26T22:26:29.347Z,1.80
2018-12-26T22:28:55.552Z,1.80
2018-12-26T22:31:21.886Z,1.80
2018-12-26T22:33:48.084Z,1.90
2018-12-26T22:36:26.439Z,1.80
2018-12-26T22:38:52.642Z,1.70
2018-12-26T22:41:18.878Z,1.80
2018-12-26T22:43:45.126Z,1.80
2018-12-26T22:46:11.394Z,1.80
2018-12-26T22:48:37.699Z,1.90
2018-12-26T22:51:03.925Z,1.80
2018-12-26T22:53:30.299Z,1.80
2018-12-26T22:55:56.621Z,1.90
2018-12-26T22:58:22.825Z,1.90
2018-12-26T23:00:49.550Z,1.90
2018-12-26T23:03:15.799Z,1.90
2018-12-26T23:05:42.018Z,1.90
2018-12-26T23:08:08.223Z,1.90
2018-12-26T23:10:34.454Z,2.00
2018-12-26T23:13:00.672Z,1.90
2018-12-26T23:15:26.879Z,1.90
2018-12-26T23:17:53.111Z,2.00
2018-12-26T23:20:19.302Z,2.00
2018-12-26T23:22:45.527Z,2.00
2018-12-26T23:25:12.035Z,2.00
2018-12-26T23:27:38.269Z,2.10
2018-12-26T23:30:05.866Z,2.00
2018-12-26T23:32:32.301Z,2.10
2018-12-26T23:34:58.494Z,2.00
2018-12-26T23:37:24.730Z,2.00
2018-12-26T23:39:50.931Z,2.00
2018-12-26T23:42:17.155Z,2.00
2018-12-26T23:44:43.350Z,2.00
2018-12-26T23:47:09.575Z,2.00
2018-12-26T23:49:35.775Z,2.00
2018-12-26T23:52:01.990Z,2.00
2018-12-26T23:54:28.193Z,2.10
2018-12-26T23:56:54.419Z,2.10
2018-12-26T23:59:20.683Z,2.10
